Time;durP1;ratioP1;P1;durP2;ratioP2;P2;SDS_P1;SDS_P2;PMS_P1;PMS_P2;Temp;Humidity;BMP_temperature;BMP_pressure;BME280_temperature;BME280_humidity;BME280_pressure;Samples;Min_cycle;Max_cycle;Signal;HPM_P1;HPM_P2
2022/11/14 00:00:44;;;;;;;25.50;19.25;;;11.30;99.90;;;;;;5033890;28;20478;-80
2022/11/14 00:03:11;;;;;;;25.83;19.13;;;11.30;99.90;;;;;;5052632;28;20282;-80
2022/11/14 00:05:42;;;;;;;23.92;18.25;;;11.30;99.90;;;;;;5058090;28;20534;-81
2022/11/14 00:08:18;;;;;;;27.35;19.92;;;11.30;99.90;;;;;;5059255;28;20398;-80
2022/11/14 00:10:46;;;;;;;26.83;19.38;;;11.30;99.90;;;;;;5058595;28;20087;-80
2022/11/14 00:13:11;;;;;;;27.33;20.02;;;11.40;99.90;;;;;;5058605;28;20051;-81
2022/11/14 00:15:37;;;;;;;27.42;20.35;;;11.40;99.90;;;;;;5058535;28;20033;-81
2022/11/14 00:18:03;;;;;;;23.60;18.88;;;11.30;99.90;;;;;;5040914;28;20021;-81
2022/11/14 00:20:29;;;;;;;25.17;18.80;;;11.30;99.90;;;;;;5058514;28;20029;-81
2022/11/14 00:22:54;;;;;;;28.25;20.27;;;11.30;99.90;;;;;;5058681;28;20029;-82
2022/11/14 00:25:20;;;;;;;28.38;19.50;;;11.20;99.90;;;;;;5055557;28;20100;-81
2022/11/14 00:27:46;;;;;;;28.52;20.13;;;11.20;99.90;;;;;;5020921;28;20018;-80
2022/11/14 00:30:11;;;;;;;26.02;20.10;;;11.20;99.90;;;;;;5038514;28;20029;-81
2022/11/14 00:32:37;;;;;;;26.15;19.15;;;11.20;99.90;;;;;;5038244;28;20029;-81
2022/11/14 00:35:03;;;;;;;24.65;18.98;;;11.10;99.90;;;;;;5038420;28;20396;-81
2022/11/14 00:37:28;;;;;;;27.58;19.75;;;11.20;99.90;;;;;;5047577;28;20024;-81
2022/11/14 00:39:54;;;;;;;24.83;19.30;;;11.20;99.90;;;;;;5058319;28;20529;-81
2022/11/14 00:42:20;;;;;;;25.63;19.45;;;11.20;99.90;;;;;;5058656;28;20024;-81
2022/11/14 00:44:45;;;;;;;25.77;19.73;;;11.20;99.90;;;;;;5058305;28;20029;-81
2022/11/14 00:47:11;;;;;;;23.80;19.02;;;11.20;99.90;;;;;;5058420;28;20495;-81
2022/11/14 00:49:37;;;;;;;26.52;19.05;;;11.20;99.90;;;;;;5058678;28;20025;-81
2022/11/14 00:52:03;;;;;;;24.48;18.40;;;11.20;99.90;;;;;;5058689;28;20028;-81
2022/11/14 00:54:28;;;;;;;24.25;18.80;;;11.30;99.90;;;;;;5040097;28;20071;-82
2022/11/14 00:56:54;;;;;;;26.00;18.98;;;11.30;99.90;;;;;;5023975;28;20037;-82
2022/11/14 00:59:20;;;;;;;24.85;18.80;;;11.30;99.90;;;;;;5037421;28;20025;-81
2022/11/14 01:01:45;;;;;;;26.90;19.95;;;11.30;99.90;;;;;;5040041;28;20152;-82
2022/11/14 01:04:11;;;;;;;24.33;18.45;;;11.30;99.90;;;;;;5019841;28;20033;-81
2022/11/14 01:06:37;;;;;;;25.65;18.52;;;11.30;99.90;;;;;;5037439;28;20026;-82
2022/11/14 01:09:03;;;;;;;22.48;17.15;;;11.30;99.90;;;;;;5019772;28;20025;-82
2022/11/14 01:11:28;;;;;;;25.00;18.13;;;11.30;99.90;;;;;;5037262;28;20024;-81
2022/11/14 01:13:54;;;;;;;25.08;17.65;;;11.40;99.90;;;;;;5037343;28;20491;-81
2022/11/14 01:16:20;;;;;;;25.13;17.70;;;11.40;99.90;;;;;;5017156;28;20049;-82
2022/11/14 01:18:45;;;;;;;23.20;17.13;;;11.40;99.90;;;;;;5034343;28;20411;-81
2022/11/14 01:21:12;;;;;;;24.65;17.23;;;11.30;99.90;;;;;;5016505;28;20120;-82
2022/11/14 01:23:38;;;;;;;22.85;16.85;;;11.30;99.90;;;;;;5034325;28;20030;-81
2022/11/14 01:26:07;;;;;;;23.65;17.17;;;11.30;99.90;;;;;;5033954;28;20031;-81
2022/11/14 01:28:33;;;;;;;23.02;16.23;;;11.30;99.90;;;;;;5034108;28;20037;-81
2022/11/14 01:31:15;;;;;;;21.33;15.48;;;11.30;99.90;;;;;;5016402;28;20384;-81
2022/11/14 01:33:41;;;;;;;21.60;16.10;;;11.30;99.90;;;;;;5034146;28;20029;-82
2022/11/14 01:36:08;;;;;;;18.42;14.43;;;11.30;99.90;;;;;;5033752;28;20057;-82
2022/11/14 01:38:34;;;;;;;15.07;12.43;;;11.30;99.90;;;;;;5016255;28;20025;-81
2022/11/14 01:41:00;;;;;;;15.50;12.93;;;11.30;99.90;;;;;;5033720;28;20025;-81
2022/11/14 01:43:29;;;;;;;19.33;15.23;;;11.30;99.90;;;;;;5033799;28;20017;-81
2022/11/14 01:46:03;;;;;;;17.50;13.90;;;11.30;99.90;;;;;;5033487;28;20021;-81
2022/11/14 01:48:45;;;;;;;16.63;14.30;;;11.30;99.90;;;;;;5033649;28;20075;-81
2022/11/14 01:51:27;;;;;;;15.30;12.77;;;11.30;99.90;;;;;;5033561;28;20473;-81
2022/11/14 01:53:55;;;;;;;11.52;10.13;;;11.30;99.90;;;;;;5016032;28;20423;-81
2022/11/14 01:56:28;;;;;;;11.30;9.55;;;11.30;99.90;;;;;;5033527;28;20029;-81
2022/11/14 01:59:00;;;;;;;10.43;9.32;;;11.30;99.90;;;;;;5033712;28;20029;-82
2022/11/14 02:01:29;;;;;;;11.20;9.30;;;11.30;99.90;;;;;;5033652;28;20035;-81
2022/11/14 02:03:58;;;;;;;8.15;7.45;;;11.30;99.90;;;;;;5033484;28;20025;-81
2022/11/14 02:06:27;;;;;;;7.13;6.07;;;11.30;99.90;;;;;;5033383;28;20028;-81
2022/11/14 02:09:00;;;;;;;6.03;5.53;;;11.30;99.90;;;;;;5015419;28;20049;-81
2022/11/14 02:11:30;;;;;;;6.20;5.65;;;11.30;99.90;;;;;;5033233;28;20124;-81
2022/11/14 02:13:57;;;;;;;7.13;6.43;;;11.30;99.90;;;;;;5015280;28;20033;-82
2022/11/14 02:16:24;;;;;;;7.60;6.90;;;11.30;99.90;;;;;;5032912;28;20150;-81
2022/11/14 02:18:50;;;;;;;7.90;7.10;;;11.30;99.90;;;;;;5015564;28;20025;-81
2022/11/14 02:21:16;;;;;;;10.52;9.43;;;11.30;99.90;;;;;;5032944;28;20083;-81
2022/11/14 02:23:44;;;;;;;13.80;10.75;;;11.30;99.90;;;;;;5048337;28;20025;-82
2022/11/14 02:26:10;;;;;;;13.10;10.82;;;11.30;99.90;;;;;;5032940;28;20033;-81
2022/11/14 02:28:36;;;;;;;12.57;11.00;;;11.30;99.90;;;;;;5048106;28;20433;-81
2022/11/14 02:31:02;;;;;;;12.80;11.20;;;11.30;99.90;;;;;;5032841;28;20074;-82
2022/11/14 02:33:27;;;;;;;12.40;10.98;;;11.30;99.90;;;;;;5032798;28;20040;-81
2022/11/14 02:35:53;;;;;;;12.45;10.52;;;11.30;99.90;;;;;;5048411;28;20164;-81
2022/11/14 02:38:19;;;;;;;11.45;10.25;;;11.30;99.90;;;;;;5032727;28;20032;-81
2022/11/14 02:40:45;;;;;;;13.40;9.80;;;11.30;99.90;;;;;;5032895;28;20030;-81
2022/11/14 02:43:10;;;;;;;11.20;10.00;;;11.30;99.90;;;;;;5049732;28;20025;-81
2022/11/14 02:45:36;;;;;;;9.63;8.65;;;11.30;99.90;;;;;;5034672;28;20475;-81
2022/11/14 02:48:02;;;;;;;12.23;9.32;;;11.30;99.90;;;;;;5035054;28;20091;-81
2022/11/14 02:50:28;;;;;;;11.35;9.93;;;11.30;99.90;;;;;;5034858;28;20075;-81
2022/11/14 02:52:53;;;;;;;13.48;10.32;;;11.30;99.90;;;;;;5052848;28;20511;-81
2022/11/14 02:55:20;;;;;;;10.77;9.27;;;11.30;99.90;;;;;;5050296;28;20526;-81
2022/11/14 02:57:46;;;;;;;10.93;9.50;;;11.20;99.90;;;;;;5033209;28;20476;-81
2022/11/14 03:00:12;;;;;;;10.15;9.15;;;11.20;99.90;;;;;;5014969;28;20084;-81
2022/11/14 03:02:38;;;;;;;9.98;8.98;;;11.30;99.90;;;;;;5033413;28;20495;-81
2022/11/14 03:05:04;;;;;;;8.60;7.80;;;11.30;99.90;;;;;;5033074;28;20117;-81
2022/11/14 03:07:31;;;;;;;8.60;7.80;;;11.20;99.90;;;;;;5031178;28;20486;-81
2022/11/14 03:09:56;;;;;;;14.25;6.72;;;11.30;99.90;;;;;;5035228;28;20481;-81
2022/11/14 03:12:22;;;;;;;7.13;6.53;;;11.30;99.90;;;;;;5052914;28;20108;-81
2022/11/14 03:14:48;;;;;;;8.35;7.55;;;11.30;99.90;;;;;;5052936;28;20395;-81
2022/11/14 03:17:13;;;;;;;9.02;7.45;;;11.30;99.90;;;;;;5053020;28;20025;-81
2022/11/14 03:19:39;;;;;;;7.45;6.75;;;11.30;99.90;;;;;;5052685;28;20020;-81
2022/11/14 03:22:05;;;;;;;7.75;7.05;;;11.30;99.90;;;;;;5052547;28;20028;-81
2022/11/14 03:24:30;;;;;;;6.63;6.03;;;11.20;99.90;;;;;;5034405;28;20150;-81
2022/11/14 03:26:56;;;;;;;7.53;6.75;;;11.30;99.90;;;;;;5018325;28;20103;-81
2022/11/14 03:29:22;;;;;;;8.10;7.30;;;11.30;99.90;;;;;;5014773;28;20498;-81
2022/11/14 03:31:47;;;;;;;8.00;6.50;;;11.20;99.90;;;;;;5032828;28;20048;-81
2022/11/14 03:34:13;;;;;;;8.13;7.32;;;11.20;99.90;;;;;;5032123;28;20036;-81
2022/11/14 03:36:42;;;;;;;10.45;8.57;;;11.20;99.90;;;;;;5032124;28;20034;-81
2022/11/14 03:39:08;;;;;;;11.27;9.45;;;11.20;99.90;;;;;;5013962;28;20033;-81
2022/11/14 03:41:33;;;;;;;11.55;10.20;;;11.20;99.90;;;;;;5032113;28;20029;-81
2022/11/14 03:43:59;;;;;;;11.13;9.52;;;11.20;99.90;;;;;;5032491;28;20037;-81
2022/11/14 03:46:25;;;;;;;10.93;9.32;;;11.20;99.90;;;;;;5008583;28;20519;-81
2022/11/14 03:48:53;;;;;;;10.73;8.68;;;11.30;99.90;;;;;;5013641;28;20025;-81
2022/11/14 03:51:19;;;;;;;10.25;9.15;;;11.30;99.90;;;;;;5013635;28;20104;-81
2022/11/14 03:53:45;;;;;;;8.68;7.85;;;11.20;99.90;;;;;;5013823;28;20451;-81
2022/11/14 03:56:10;;;;;;;9.70;8.70;;;11.30;99.90;;;;;;5013122;28;20105;-81
2022/11/14 03:58:36;;;;;;;11.35;8.60;;;11.30;99.90;;;;;;4996665;28;20061;-81
2022/11/14 04:01:02;;;;;;;14.27;8.40;;;11.20;99.90;;;;;;5014427;28;20029;-81
2022/11/14 04:03:31;;;;;;;9.73;8.18;;;11.20;99.90;;;;;;5029444;28;20046;-81
2022/11/14 04:05:56;;;;;;;9.82;8.52;;;11.20;99.90;;;;;;5014037;28;20029;-81
2022/11/14 04:08:22;;;;;;;9.32;8.38;;;11.20;99.90;;;;;;4996070;28;20026;-81
2022/11/14 04:10:48;;;;;;;8.82;7.93;;;11.20;99.90;;;;;;4994658;28;20034;-81
2022/11/14 04:13:14;;;;;;;9.23;8.32;;;11.20;99.90;;;;;;5012185;28;20465;-81
2022/11/14 04:15:43;;;;;;;8.90;7.97;;;11.20;99.90;;;;;;4994357;28;20480;-81
2022/11/14 04:18:09;;;;;;;12.35;8.77;;;11.20;99.90;;;;;;5012113;28;20116;-81
2022/11/14 04:20:35;;;;;;;14.18;8.02;;;11.20;99.90;;;;;;5011981;28;20077;-81
2022/11/14 04:23:00;;;;;;;13.20;8.50;;;11.20;99.90;;;;;;4994600;28;20022;-81
2022/11/14 04:25:26;;;;;;;8.95;8.02;;;11.20;99.90;;;;;;5032110;28;20053;-81
2022/11/14 04:27:52;;;;;;;8.70;7.80;;;11.20;99.90;;;;;;5032841;28;20025;-81
2022/11/14 04:30:20;;;;;;;12.07;7.57;;;11.20;99.90;;;;;;5048339;28;20419;-81
2022/11/14 04:32:47;;;;;;;8.23;7.47;;;11.10;99.90;;;;;;5032931;28;20479;-81
2022/11/14 04:35:13;;;;;;;9.80;8.27;;;11.10;99.90;;;;;;5015175;28;20619;-81
2022/11/14 04:37:38;;;;;;;8.55;7.75;;;11.10;99.90;;;;;;5033937;28;20072;-81
2022/11/14 04:40:05;;;;;;;9.40;8.40;;;11.10;99.90;;;;;;5015220;28;20136;-81
2022/11/14 04:42:30;;;;;;;8.55;7.78;;;11.10;99.90;;;;;;5031792;28;20029;-81
2022/11/14 04:44:56;;;;;;;8.77;7.95;;;11.10;99.90;;;;;;5032219;28;20056;-81
2022/11/14 04:47:22;;;;;;;8.65;7.85;;;11.10;99.90;;;;;;5046934;28;20098;-81
2022/11/14 04:49:47;;;;;;;9.35;7.88;;;11.10;99.90;;;;;;5053250;28;20021;-81
2022/11/14 04:52:13;;;;;;;11.15;8.43;;;11.10;99.90;;;;;;5056250;28;20394;-81
2022/11/14 04:54:39;;;;;;;8.57;7.63;;;11.10;99.90;;;;;;5040070;28;20033;-81
2022/11/14 04:57:04;;;;;;;8.02;7.30;;;11.10;99.90;;;;;;5040342;28;20470;-81
2022/11/14 04:59:30;;;;;;;8.05;7.28;;;11.10;99.90;;;;;;5037112;28;20029;-81
2022/11/14 05:01:56;;;;;;;8.38;7.65;;;11.20;99.90;;;;;;5052932;28;20021;-81
2022/11/14 05:04:21;;;;;;;8.32;7.57;;;11.10;99.90;;;;;;5037945;28;20026;-81
2022/11/14 05:06:47;;;;;;;7.43;6.72;;;11.20;99.90;;;;;;5037814;28;20021;-81
2022/11/14 05:09:12;;;;;;;7.93;7.13;;;11.20;99.90;;;;;;5037786;28;20411;-81
2022/11/14 05:11:38;;;;;;;9.10;7.50;;;11.20;99.90;;;;;;5036850;28;20030;-81
2022/11/14 05:14:04;;;;;;;8.35;7.57;;;11.20;99.90;;;;;;5019272;28;20030;-81
2022/11/14 05:16:29;;;;;;;6.93;6.32;;;11.20;99.90;;;;;;5035256;28;20451;-81
2022/11/14 05:18:55;;;;;;;8.70;6.80;;;11.20;99.90;;;;;;5034764;28;20021;-81
2022/11/14 05:21:21;;;;;;;7.00;6.38;;;11.10;99.90;;;;;;5034712;28;20083;-81
2022/11/14 05:23:46;;;;;;;8.00;7.20;;;11.10;99.90;;;;;;5034427;28;20022;-81
2022/11/14 05:26:15;;;;;;;7.50;6.90;;;11.10;99.90;;;;;;5034546;28;20427;-81
2022/11/14 05:28:41;;;;;;;7.60;6.68;;;11.20;99.90;;;;;;5034530;28;20104;-81
2022/11/14 05:31:18;;;;;;;7.43;6.72;;;11.10;99.90;;;;;;5052108;28;20463;-81
2022/11/14 05:33:45;;;;;;;7.40;6.70;;;11.20;99.90;;;;;;5019814;28;20033;-81
2022/11/14 05:36:16;;;;;;;6.70;6.10;;;11.10;99.90;;;;;;5042565;28;20117;-80
2022/11/14 05:38:42;;;;;;;6.80;6.15;;;11.10;99.90;;;;;;5025133;28;20028;-81
2022/11/14 05:41:12;;;;;;;5.88;5.28;;;11.10;99.90;;;;;;5033155;28;20389;-82
2022/11/14 05:43:38;;;;;;;6.50;5.90;;;11.10;99.90;;;;;;5046916;28;20017;-81
2022/11/14 05:46:08;;;;;;;6.18;5.60;;;11.10;99.90;;;;;;5034241;28;20029;-81
2022/11/14 05:48:33;;;;;;;6.65;5.90;;;11.00;99.90;;;;;;5034302;28;20044;-81
2022/11/14 05:51:01;;;;;;;6.63;6.03;;;11.10;99.90;;;;;;5034015;28;20582;-82
2022/11/14 05:53:28;;;;;;;6.30;5.75;;;11.10;99.90;;;;;;5025905;28;20117;-81
2022/11/14 05:55:54;;;;;;;6.53;5.93;;;11.10;99.90;;;;;;5025000;28;20052;-81
2022/11/14 05:58:21;;;;;;;5.90;5.43;;;11.10;99.90;;;;;;5023523;28;20427;-81
2022/11/14 06:00:46;;;;;;;6.32;5.80;;;11.10;99.90;;;;;;5046552;28;20036;-81
2022/11/14 06:03:13;;;;;;;6.72;5.93;;;11.20;99.90;;;;;;5038555;28;20022;-81
2022/11/14 06:05:40;;;;;;;6.70;6.07;;;11.20;99.90;;;;;;5036107;28;20511;-81
2022/11/14 06:08:06;;;;;;;6.07;5.50;;;11.20;99.90;;;;;;5035351;28;20102;-81
2022/11/14 06:10:34;;;;;;;6.07;5.63;;;11.20;99.90;;;;;;5053457;28;20437;-81
2022/11/14 06:12:59;;;;;;;6.70;6.05;;;11.20;99.90;;;;;;5053287;28;20078;-81
2022/11/14 06:15:25;;;;;;;5.32;4.93;;;11.20;99.90;;;;;;5053200;28;20025;-81
2022/11/14 06:17:52;;;;;;;6.13;5.60;;;11.20;99.90;;;;;;5053036;28;20479;-81
2022/11/14 06:20:18;;;;;;;7.22;6.20;;;11.10;99.90;;;;;;5035084;28;20033;-81
2022/11/14 06:22:44;;;;;;;5.78;5.32;;;11.10;99.90;;;;;;5035257;28;20077;-81
2022/11/14 06:25:09;;;;;;;6.18;5.57;;;11.20;99.90;;;;;;5033533;28;20039;-81
2022/11/14 06:27:35;;;;;;;6.63;5.15;;;11.20;99.90;;;;;;5031149;28;20492;-81
2022/11/14 06:30:01;;;;;;;6.00;5.45;;;11.20;99.90;;;;;;5046693;28;20025;-81
2022/11/14 06:32:27;;;;;;;6.10;5.60;;;11.20;99.90;;;;;;5048765;28;20065;-81
2022/11/14 06:34:53;;;;;;;5.93;5.35;;;11.10;99.90;;;;;;5033007;28;20049;-81
2022/11/14 06:37:18;;;;;;;6.40;5.80;;;11.10;99.90;;;;;;5033235;28;20025;-81
2022/11/14 06:39:44;;;;;;;5.85;5.45;;;11.10;99.90;;;;;;5051618;28;20025;-81
2022/11/14 06:42:10;;;;;;;5.95;5.50;;;11.20;99.90;;;;;;5017167;28;20029;-81
2022/11/14 06:44:35;;;;;;;6.20;5.60;;;11.20;99.90;;;;;;5033996;28;20112;-82
2022/11/14 06:47:01;;;;;;;6.30;5.78;;;11.20;99.90;;;;;;5033739;28;20088;-81
2022/11/14 06:49:27;;;;;;;6.25;5.75;;;11.20;99.90;;;;;;5034157;28;20025;-81
2022/11/14 06:51:53;;;;;;;6.63;6.07;;;11.30;99.90;;;;;;5034091;28;20112;-81
2022/11/14 06:54:19;;;;;;;6.13;5.63;;;11.20;99.90;;;;;;5033636;28;20471;-81
2022/11/14 06:56:44;;;;;;;6.57;5.97;;;11.20;99.90;;;;;;5049117;28;20124;-81
2022/11/14 06:59:10;;;;;;;6.38;5.80;;;11.20;99.90;;;;;;5033902;28;20084;-81
2022/11/14 07:01:36;;;;;;;8.25;7.00;;;11.20;99.90;;;;;;5048987;28;20471;-81
2022/11/14 07:04:02;;;;;;;9.25;8.25;;;11.20;99.90;;;;;;5033910;28;20022;-81
2022/11/14 07:06:29;;;;;;;11.88;9.82;;;11.20;99.90;;;;;;5033745;28;20022;-82
2022/11/14 07:08:56;;;;;;;11.07;8.82;;;11.20;99.90;;;;;;5048645;28;20112;-82
2022/11/14 07:11:25;;;;;;;10.45;9.05;;;11.20;99.90;;;;;;5015872;28;20030;-81
2022/11/14 07:14:03;;;;;;;8.10;7.40;;;11.20;99.90;;;;;;5014882;28;20029;-81
2022/11/14 07:16:31;;;;;;;8.20;7.40;;;11.10;99.90;;;;;;5033029;28;20079;-81
2022/11/14 07:18:57;;;;;;;8.98;7.43;;;11.10;99.90;;;;;;5032956;28;20025;-81
2022/11/14 07:21:25;;;;;;;7.97;7.05;;;11.10;99.90;;;;;;5047448;28;20032;-81
2022/11/14 07:23:51;;;;;;;6.47;5.97;;;11.10;99.90;;;;;;5032691;28;20387;-82
2022/11/14 07:26:17;;;;;;;7.32;6.63;;;11.10;99.90;;;;;;5043478;28;20534;-81
2022/11/14 07:28:44;;;;;;;7.35;6.65;;;11.10;99.90;;;;;;5035319;28;20056;-81
2022/11/14 07:31:12;;;;;;;6.40;5.82;;;11.10;99.90;;;;;;5053266;28;20474;-82
2022/11/14 07:33:39;;;;;;;6.70;6.03;;;11.10;99.90;;;;;;5053021;28;20036;-81
2022/11/14 07:36:05;;;;;;;6.18;5.68;;;11.10;99.90;;;;;;5035225;28;20041;-82
2022/11/14 07:38:32;;;;;;;7.10;6.40;;;11.10;99.90;;;;;;5052994;28;20495;-82
2022/11/14 07:41:00;;;;;;;7.78;6.65;;;11.10;99.90;;;;;;5052931;28;20032;-81
2022/11/14 07:43:26;;;;;;;7.97;7.13;;;11.10;99.90;;;;;;5053008;28;20029;-81
2022/11/14 07:45:52;;;;;;;7.55;6.95;;;11.10;99.90;;;;;;5035065;28;20025;-80
2022/11/14 07:48:20;;;;;;;8.63;7.75;;;11.10;99.90;;;;;;5053028;28;20036;-81
2022/11/14 07:50:46;;;;;;;8.55;7.63;;;11.10;99.90;;;;;;5034793;28;20029;-81
2022/11/14 07:53:12;;;;;;;9.27;7.68;;;11.20;99.90;;;;;;5051809;28;20025;-82
2022/11/14 07:55:38;;;;;;;6.40;5.88;;;11.20;99.90;;;;;;5028367;28;20380;-81
2022/11/14 07:58:04;;;;;;;8.23;7.20;;;11.20;99.90;;;;;;5031510;28;20392;-77
2022/11/14 08:00:30;;;;;;;8.45;7.22;;;11.20;99.90;;;;;;5013844;28;20033;-76
2022/11/14 08:02:59;;;;;;;7.50;6.80;;;11.20;99.90;;;;;;5031464;28;20025;-76
2022/11/14 08:05:24;;;;;;;6.50;6.00;;;11.20;99.90;;;;;;5031463;28;20100;-76
2022/11/14 08:07:51;;;;;;;6.38;5.88;;;11.20;99.90;;;;;;5031367;28;20052;-76
2022/11/14 08:10:17;;;;;;;6.45;5.85;;;11.20;99.90;;;;;;5031562;28;20029;-76
2022/11/14 08:12:44;;;;;;;5.63;5.20;;;11.20;99.90;;;;;;5031350;28;20056;-76
2022/11/14 08:15:13;;;;;;;5.38;4.97;;;11.30;99.90;;;;;;5031346;28;20026;-76
2022/11/14 08:17:39;;;;;;;5.53;5.13;;;11.30;99.90;;;;;;5013493;28;20030;-77
2022/11/14 08:20:06;;;;;;;5.10;4.55;;;11.30;99.90;;;;;;5015979;28;20505;-76
2022/11/14 08:22:32;;;;;;;5.38;4.95;;;11.30;99.90;;;;;;5040508;28;20095;-77
2022/11/14 08:24:58;;;;;;;5.15;4.68;;;11.30;99.90;;;;;;5018835;28;20475;-76
2022/11/14 08:27:27;;;;;;;5.38;4.90;;;11.30;99.90;;;;;;5047196;28;20104;-77
2022/11/14 08:29:52;;;;;;;4.90;4.50;;;11.30;99.90;;;;;;5044488;28;20025;-76
2022/11/14 08:32:19;;;;;;;5.03;4.72;;;11.40;99.90;;;;;;5022118;28;20048;-77
2022/11/14 08:34:44;;;;;;;5.78;5.00;;;11.40;99.90;;;;;;5026138;28;20028;-77
2022/11/14 08:37:10;;;;;;;5.28;4.88;;;11.40;99.90;;;;;;5043806;28;20087;-77
2022/11/14 08:39:36;;;;;;;5.22;4.78;;;11.40;99.90;;;;;;5025107;28;20464;-77
2022/11/14 08:42:01;;;;;;;7.13;5.32;;;11.40;99.90;;;;;;5034939;28;20032;-77
2022/11/14 08:44:27;;;;;;;6.53;5.93;;;11.50;99.90;;;;;;5012388;28;20041;-77
2022/11/14 08:46:53;;;;;;;5.72;5.25;;;11.50;99.90;;;;;;5038903;28;20595;-77
2022/11/14 08:49:19;;;;;;;6.15;5.63;;;11.50;99.90;;;;;;5049992;28;20422;-77
2022/11/14 08:51:44;;;;;;;6.28;5.68;;;11.50;99.90;;;;;;5040635;28;20033;-77
2022/11/14 08:54:10;;;;;;;4.68;4.38;;;11.60;99.90;;;;;;5024087;28;20403;-77
2022/11/14 08:56:36;;;;;;;4.78;4.45;;;11.60;99.90;;;;;;5023404;28;20057;-77
2022/11/14 08:59:04;;;;;;;4.95;4.60;;;11.60;99.90;;;;;;5021428;28;20021;-76
2022/11/14 09:01:31;;;;;;;5.43;4.93;;;11.60;99.90;;;;;;5021426;28;20497;-76
2022/11/14 09:03:58;;;;;;;5.40;4.90;;;11.60;99.90;;;;;;5022819;28;20017;-76
2022/11/14 09:06:27;;;;;;;5.57;4.63;;;11.70;99.90;;;;;;5018662;28;20083;-77
2022/11/14 09:08:56;;;;;;;5.10;3.67;;;11.70;99.90;;;;;;5048561;28;20020;-76
2022/11/14 09:11:22;;;;;;;4.97;3.72;;;11.70;99.90;;;;;;5024984;28;20029;-76
2022/11/14 09:13:48;;;;;;;4.63;4.22;;;11.70;99.90;;;;;;5031998;28;20707;-76
2022/11/14 09:16:13;;;;;;;5.28;4.05;;;11.70;99.90;;;;;;5031167;28;20517;-76
2022/11/14 09:18:42;;;;;;;4.85;4.45;;;11.80;99.90;;;;;;5048757;28;20037;-77
2022/11/14 09:21:09;;;;;;;6.10;5.50;;;11.80;99.90;;;;;;5027900;28;20040;-76
2022/11/14 09:23:38;;;;;;;5.07;4.68;;;11.90;99.90;;;;;;5027891;28;20029;-76
2022/11/14 09:26:05;;;;;;;5.68;5.18;;;12.00;99.90;;;;;;5040858;28;20020;-76
2022/11/14 09:28:31;;;;;;;4.57;4.28;;;12.10;99.90;;;;;;5019350;28;20029;-77
2022/11/14 09:31:09;;;;;;;6.28;4.85;;;12.10;99.90;;;;;;5051574;28;20487;-80
2022/11/14 09:33:35;;;;;;;8.10;4.95;;;12.10;99.90;;;;;;5036239;28;20048;-80
2022/11/14 09:36:04;;;;;;;5.63;5.15;;;12.10;99.90;;;;;;5035978;28;20115;-80
2022/11/14 09:38:30;;;;;;;4.82;4.32;;;12.20;99.90;;;;;;5068739;28;20107;-80
2022/11/14 09:41:07;;;;;;;5.15;4.75;;;12.30;99.90;;;;;;5054133;28;20036;-81
2022/11/14 09:43:42;;;;;;;9.20;4.85;;;12.30;99.90;;;;;;5036384;28;20025;-80
2022/11/14 09:46:21;;;;;;;6.20;5.55;;;12.30;99.90;;;;;;5053504;28;20036;-79
2022/11/14 09:48:50;;;;;;;5.63;5.13;;;12.30;99.90;;;;;;5053138;28;20086;-79
2022/11/14 09:51:22;;;;;;;10.70;8.68;;;12.40;99.90;;;;;;5034605;28;20130;-79
2022/11/14 09:54:12;;;;;;;12.30;9.48;;;12.40;99.90;;;;;;5053347;28;20060;-79
2022/11/14 09:56:38;;;;;;;7.35;6.35;;;12.50;99.90;;;;;;5021548;28;20034;-79
2022/11/14 09:59:10;;;;;;;10.80;8.30;;;12.50;99.90;;;;;;5033486;28;20388;-79
2022/11/14 10:02:27;;;;;;;9.05;6.78;;;12.50;99.90;;;;;;5015507;28;20021;-79
2022/11/14 10:05:14;;;;;;;5.85;5.35;;;12.50;99.90;;;;;;4970216;28;20034;-79
2022/11/14 10:08:02;;;;;;;5.47;4.97;;;12.60;99.90;;;;;;5028053;28;20061;-79
2022/11/14 10:10:37;;;;;;;6.55;5.45;;;12.60;99.90;;;;;;5046858;28;20029;-79
2022/11/14 10:13:26;;;;;;;10.25;5.60;;;12.70;99.90;;;;;;5013817;28;20188;-79
2022/11/14 10:16:01;;;;;;;7.13;5.00;;;12.70;99.90;;;;;;5031760;28;20029;-79
2022/11/14 10:18:40;;;;;;;6.00;5.40;;;12.80;99.90;;;;;;5048009;28;20030;-79
2022/11/14 10:21:28;;;;;;;5.75;5.25;;;12.80;99.90;;;;;;5034467;28;20420;-79
2022/11/14 10:24:41;;;;;;;5.72;5.22;;;12.80;99.90;;;;;;5052817;28;20028;-79
2022/11/14 10:27:16;;;;;;;5.80;5.32;;;12.90;99.90;;;;;;4974836;28;20150;-79
2022/11/14 10:30:08;;;;;;;8.07;6.53;;;13.00;99.90;;;;;;5015282;28;20061;-80
2022/11/14 10:33:07;;;;;;;6.47;5.78;;;13.00;99.90;;;;;;5009951;28;20087;-80
2022/11/14 10:35:49;;;;;;;7.32;6.45;;;13.10;99.90;;;;;;5033048;28;20033;-80
2022/11/14 10:38:28;;;;;;;;;;;13.10;99.90;;;;;;5033133;28;20033;-80
2022/11/14 10:41:04;;;;;;;10.32;7.93;;;13.10;99.90;;;;;;5032743;28;19964;-80
2022/11/14 10:43:48;;;;;;;9.55;7.60;;;13.10;99.90;;;;;;5014887;28;20189;-79
2022/11/14 10:46:38;;;;;;;10.93;7.90;;;13.20;99.90;;;;;;5029553;28;20408;-80
2022/11/14 10:49:22;;;;;;;7.72;6.88;;;13.20;99.90;;;;;;5012811;28;20026;-80
2022/11/14 10:51:54;;;;;;;8.63;6.75;;;13.30;99.90;;;;;;5012635;28;20016;-80
2022/11/14 10:54:32;;;;;;;8.95;7.20;;;13.30;99.90;;;;;;4994959;28;20033;-79
2022/11/14 10:56:58;;;;;;;14.40;7.10;;;13.30;99.90;;;;;;5027918;28;20034;-80
2022/11/14 10:59:26;;;;;;;6.53;5.85;;;13.30;99.90;;;;;;5014843;28;20554;-80
2022/11/14 11:01:53;;;;;;;7.85;5.93;;;13.30;99.90;;;;;;5012577;28;20043;-81
2022/11/14 11:04:26;;;;;;;6.28;5.68;;;13.40;99.90;;;;;;5012675;28;20053;-80
2022/11/14 11:06:55;;;;;;;5.68;5.10;;;13.40;99.90;;;;;;4995011;28;20048;-80
2022/11/14 11:12:18;;;;;;;5.55;5.05;;;13.40;99.90;;;;;;5012913;28;20061;-80
2022/11/14 11:14:46;;;;;;;4.80;4.40;;;13.40;99.90;;;;;;4994581;28;20030;-80
2022/11/14 11:17:11;;;;;;;5.80;4.85;;;13.40;99.90;;;;;;5012429;28;20392;-80
2022/11/14 11:19:41;;;;;;;5.13;4.55;;;13.40;99.90;;;;;;5012528;28;20030;-80
2022/11/14 11:22:30;;;;;;;8.80;5.28;;;13.40;99.90;;;;;;4994495;28;20038;-80
2022/11/14 11:24:56;;;;;;;6.47;5.18;;;13.50;99.90;;;;;;5012343;28;20108;-80
2022/11/14 11:27:27;;;;;;;10.15;4.22;;;13.50;99.90;;;;;;5031331;28;20104;-80
2022/11/14 11:30:16;;;;;;;5.07;4.57;;;13.60;99.90;;;;;;5014062;28;20028;-80
2022/11/14 11:32:41;;;;;;;3.95;3.65;;;13.60;99.90;;;;;;5031591;28;20025;-80
2022/11/14 11:35:12;;;;;;;4.72;4.32;;;13.70;99.90;;;;;;5031668;28;20076;-80
2022/11/14 11:37:43;;;;;;;6.88;4.40;;;13.70;99.90;;;;;;5031738;28;20014;-80
2022/11/14 11:40:18;;;;;;;5.47;4.68;;;13.80;99.90;;;;;;5031519;28;20029;-81
2022/11/14 11:43:05;;;;;;;5.55;4.85;;;13.70;99.90;;;;;;5031652;28;20018;-80
2022/11/14 11:45:33;;;;;;;4.63;4.28;;;13.80;99.90;;;;;;5013795;28;20079;-80
2022/11/14 11:48:13;;;;;;;4.72;4.03;;;13.90;99.90;;;;;;5027601;28;20053;-80
2022/11/14 11:50:40;;;;;;;4.35;3.88;;;13.90;99.90;;;;;;5030132;28;20026;-80
2022/11/14 11:53:24;;;;;;;4.35;3.95;;;13.90;99.90;;;;;;5029970;28;20561;-80
2022/11/14 11:55:57;;;;;;;4.85;4.40;;;14.00;99.90;;;;;;5056085;28;20080;-80
2022/11/14 11:58:48;;;;;;;4.45;4.07;;;14.00;99.90;;;;;;5011721;28;20393;-80
2022/11/14 12:01:15;;;;;;;4.45;4.15;;;14.00;99.90;;;;;;5011231;28;20030;-80
2022/11/14 12:03:45;;;;;;;3.83;3.58;;;14.20;99.90;;;;;;5011634;28;20022;-80
2022/11/14 12:06:26;;;;;;;4.07;3.65;;;14.20;99.90;;;;;;5011588;28;20105;-80
2022/11/14 12:09:00;;;;;;;8.10;4.18;;;14.30;99.90;;;;;;4993935;28;20084;-80
2022/11/14 12:11:28;;;;;;;5.15;4.13;;;14.30;99.90;;;;;;5005689;28;20030;-81
2022/11/14 12:14:17;;;;;;;4.40;4.05;;;14.40;99.90;;;;;;5011586;28;20164;-80
2022/11/14 12:17:08;;;;;;;4.32;4.03;;;14.40;99.90;;;;;;5011561;28;20499;-80
2022/11/14 12:19:58;;;;;;;4.28;3.88;;;14.50;99.90;;;;;;5011599;28;20472;-80
2022/11/14 12:22:44;;;;;;;4.18;3.83;;;14.50;99.90;;;;;;5011578;28;20057;-80
2022/11/14 12:25:31;;;;;;;5.50;4.13;;;14.40;99.90;;;;;;5011617;28;20022;-80
2022/11/14 12:28:20;;;;;;;3.55;3.28;;;14.40;99.90;;;;;;4993925;28;20480;-80
2022/11/14 12:30:52;;;;;;;4.20;3.90;;;14.30;99.90;;;;;;5014474;28;20022;-80
2022/11/14 12:33:24;;;;;;;4.40;4.10;;;14.30;99.90;;;;;;4990445;28;20037;-80
2022/11/14 12:35:56;;;;;;;3.78;3.47;;;14.20;99.90;;;;;;4991634;28;20033;-80
2022/11/14 12:38:23;;;;;;;3.70;3.42;;;14.20;99.90;;;;;;4991749;28;20034;-80
2022/11/14 12:40:53;;;;;;;4.00;3.70;;;14.20;99.90;;;;;;4990484;28;20396;-79
2022/11/14 12:43:41;;;;;;;4.30;3.90;;;14.10;99.90;;;;;;4991492;28;20022;-79
2022/11/14 12:46:12;;;;;;;3.63;3.35;;;14.10;99.90;;;;;;4993320;28;20018;-80
2022/11/14 12:48:42;;;;;;;4.85;3.70;;;14.10;99.90;;;;;;5011304;28;20018;-80
2022/11/14 12:51:28;;;;;;;4.93;3.58;;;14.10;99.90;;;;;;5011389;28;20017;-80
2022/11/14 12:53:57;;;;;;;4.03;3.72;;;14.10;99.90;;;;;;5011264;28;20026;-80
2022/11/14 12:56:31;;;;;;;7.80;4.43;;;14.10;99.90;;;;;;5022595;28;20032;-80